createdAt,value
2022-12-07T00:01:27.607Z,15.02
2022-12-07T00:03:54.976Z,13.85
2022-12-07T00:06:21.400Z,14.70
2022-12-07T00:08:47.905Z,13.68
2022-12-07T00:11:16.117Z,13.77
2022-12-07T00:13:42.549Z,15.05
2022-12-07T00:16:11.191Z,12.35
2022-12-07T00:18:37.659Z,12.38
2022-12-07T00:21:12.196Z,14.43
2022-12-07T00:23:39.044Z,11.45
2022-12-07T00:26:12.779Z,14.43
2022-12-07T00:28:39.234Z,15.77
2022-12-07T00:31:07.350Z,12.80
2022-12-07T00:33:34.484Z,12.02
2022-12-07T00:36:01.065Z,12.32
2022-12-07T00:38:29.469Z,10.90
2022-12-07T00:41:03.050Z,13.38
2022-12-07T00:43:29.499Z,14.93
2022-12-07T00:45:56.071Z,13.60
2022-12-07T00:48:22.575Z,14.43
2022-12-07T00:50:49.139Z,10.23
2022-12-07T00:53:15.678Z,14.10
2022-12-07T00:55:42.198Z,11.48
2022-12-07T00:58:08.658Z,12.70
2022-12-07T01:00:36.554Z,13.32
2022-12-07T01:03:03.400Z,15.60
2022-12-07T01:05:29.825Z,12.05
2022-12-07T01:07:56.262Z,10.90
2022-12-07T01:10:23.008Z,14.55
2022-12-07T01:12:49.431Z,10.52
2022-12-07T01:15:15.895Z,10.98
2022-12-07T01:17:42.312Z,12.13
2022-12-07T01:20:09.102Z,12.07
2022-12-07T01:22:39.326Z,12.57
2022-12-07T01:25:06.833Z,12.73
2022-12-07T01:27:34.052Z,11.27
2022-12-07T01:30:00.921Z,10.02
2022-12-07T01:32:27.777Z,14.30
2022-12-07T01:34:54.182Z,13.30
2022-12-07T01:37:20.600Z,12.27
2022-12-07T01:39:49.827Z,11.40
2022-12-07T01:42:16.363Z,13.10
2022-12-07T01:45:20.612Z,13.38
2022-12-07T01:47:52.974Z,12.93
2022-12-07T01:50:19.934Z,17.85
2022-12-07T01:52:46.321Z,15.15
2022-12-07T01:55:13.365Z,13.07
2022-12-07T01:57:41.463Z,11.95
2022-12-07T02:00:08.436Z,11.98
2022-12-07T02:02:37.779Z,10.95
2022-12-07T02:05:04.969Z,11.55
2022-12-07T02:07:31.345Z,9.35
2022-12-07T02:09:57.727Z,11.15
2022-12-07T02:12:24.242Z,9.82
2022-12-07T02:14:51.011Z,11.82
2022-12-07T02:17:22.078Z,10.15
2022-12-07T02:20:07.932Z,8.18
2022-12-07T02:22:34.231Z,8.98
2022-12-07T02:25:35.026Z,7.38
2022-12-07T02:28:08.066Z,7.88
2022-12-07T02:30:36.222Z,7.60
2022-12-07T02:33:14.444Z,8.82
2022-12-07T02:35:45.921Z,5.80
2022-12-07T02:38:35.403Z,4.70
2022-12-07T02:41:05.479Z,5.40
2022-12-07T02:43:35.129Z,6.22
2022-12-07T02:46:17.876Z,4.43
2022-12-07T02:48:44.335Z,6.57
2022-12-07T02:51:10.771Z,4.90
2022-12-07T02:53:42.233Z,6.85
2022-12-07T02:56:28.934Z,6.75
2022-12-07T02:59:24.678Z,4.90
2022-12-07T03:02:09.226Z,6.25
2022-12-07T03:04:53.810Z,3.83
2022-12-07T03:07:24.563Z,4.90
2022-12-07T03:09:53.878Z,5.07
2022-12-07T03:12:23.253Z,5.47
2022-12-07T03:14:53.827Z,4.70
2022-12-07T03:17:22.979Z,6.43
2022-12-07T03:19:49.397Z,4.28
2022-12-07T03:22:15.797Z,4.65
2022-12-07T03:24:44.897Z,4.00
2022-12-07T03:27:21.395Z,3.85
2022-12-07T03:29:56.970Z,4.45
2022-12-07T03:32:34.470Z,7.03
2022-12-07T03:35:21.490Z,3.97
2022-12-07T03:38:13.300Z,3.28
2022-12-07T03:40:56.048Z,5.72
2022-12-07T03:43:22.437Z,1.98
2022-12-07T03:46:18.324Z,2.65
2022-12-07T03:49:12.658Z,1.95
2022-12-07T03:51:55.589Z,2.85
2022-12-07T03:54:47.446Z,3.05
2022-12-07T03:57:13.866Z,2.10
2022-12-07T03:59:40.490Z,4.03
2022-12-07T04:02:07.546Z,3.05
2022-12-07T04:04:34.129Z,2.55
2022-12-07T04:07:00.537Z,1.50
2022-12-07T04:09:26.993Z,4.20
2022-12-07T04:11:53.445Z,2.72
2022-12-07T04:14:19.860Z,1.67
2022-12-07T04:16:49.797Z,4.78
2022-12-07T04:19:16.806Z,2.90
2022-12-07T04:21:43.262Z,3.25
2022-12-07T04:24:09.670Z,2.35
2022-12-07T04:26:36.082Z,3.35
2022-12-07T04:29:07.444Z,2.13
2022-12-07T04:31:34.373Z,3.40
2022-12-07T04:34:00.840Z,4.50
2022-12-07T04:36:27.267Z,2.53
2022-12-07T04:38:54.793Z,4.25
2022-12-07T04:41:21.360Z,1.55
2022-12-07T04:43:47.771Z,2.53
2022-12-07T04:46:14.264Z,4.07
2022-12-07T04:48:40.726Z,2.58
2022-12-07T04:51:07.126Z,2.05
2022-12-07T04:53:33.506Z,4.03
2022-12-07T04:55:59.929Z,1.63
2022-12-07T04:58:26.323Z,4.72
2022-12-07T05:00:55.473Z,1.25
2022-12-07T05:03:21.922Z,4.28
2022-12-07T05:05:48.308Z,2.28
2022-12-07T05:08:14.787Z,2.45
2022-12-07T05:10:41.214Z,6.18
2022-12-07T05:13:07.639Z,3.15
2022-12-07T05:15:34.034Z,1.70
2022-12-07T05:18:00.445Z,2.45
2022-12-07T05:20:26.847Z,1.80
2022-12-07T05:22:53.277Z,2.05
2022-12-07T05:25:19.729Z,1.92
2022-12-07T05:27:46.113Z,1.92
2022-12-07T05:30:13.007Z,2.30
2022-12-07T05:32:39.395Z,1.67
2022-12-07T05:35:07.576Z,2.85
2022-12-07T05:37:33.999Z,5.25
2022-12-07T05:40:00.787Z,1.40
2022-12-07T05:42:27.385Z,2.95
2022-12-07T05:44:53.794Z,1.35
2022-12-07T05:47:20.195Z,3.20
2022-12-07T05:49:46.605Z,3.30
2022-12-07T05:52:13.010Z,3.05
2022-12-07T05:54:39.448Z,2.25
2022-12-07T05:57:05.847Z,2.85
2022-12-07T05:59:32.269Z,1.55
2022-12-07T06:02:00.411Z,4.75
2022-12-07T06:04:28.253Z,1.90
2022-12-07T06:06:54.688Z,2.33
2022-12-07T06:09:21.570Z,2.40
2022-12-07T06:11:48.029Z,2.45
2022-12-07T06:14:14.425Z,3.08
2022-12-07T06:16:40.953Z,1.50
2022-12-07T06:19:07.362Z,1.88
2022-12-07T06:21:33.802Z,1.38
2022-12-07T06:24:00.197Z,2.40
2022-12-07T06:26:26.594Z,1.17
2022-12-07T06:28:52.994Z,1.35
2022-12-07T06:31:19.499Z,2.75
2022-12-07T06:33:45.962Z,14.25
2022-12-07T06:36:12.355Z,3.65
2022-12-07T06:38:38.747Z,2.38
2022-12-07T06:41:05.247Z,8.85
2022-12-07T06:43:31.659Z,1.98
2022-12-07T06:45:58.128Z,3.20
2022-12-07T06:48:24.615Z,3.33
2022-12-07T06:50:54.761Z,3.25
2022-12-07T06:53:22.043Z,2.33
2022-12-07T06:55:48.466Z,2.75
2022-12-07T06:58:14.866Z,2.45
2022-12-07T07:00:41.271Z,1.23
2022-12-07T07:03:07.663Z,2.80
2022-12-07T07:05:34.064Z,1.35
2022-12-07T07:10:46.837Z,2.20
2022-12-07T07:13:13.221Z,3.20
2022-12-07T07:15:39.690Z,1.65
2022-12-07T07:18:07.884Z,1.20
2022-12-07T07:20:34.650Z,2.92
2022-12-07T07:23:01.068Z,1.83
2022-12-07T07:25:27.447Z,0.80
2022-12-07T07:27:53.856Z,1.48
2022-12-07T07:30:20.283Z,1.55
2022-12-07T07:32:46.682Z,1.33
2022-12-07T07:35:13.058Z,1.42
2022-12-07T07:37:39.482Z,1.67
2022-12-07T07:40:06.679Z,0.60
2022-12-07T07:42:33.095Z,1.40
2022-12-07T07:44:59.499Z,0.65
2022-12-07T07:47:25.902Z,3.15
2022-12-07T07:49:52.340Z,1.00
2022-12-07T07:52:18.733Z,4.32
2022-12-07T07:54:45.123Z,1.65
2022-12-07T07:57:11.519Z,1.05
2022-12-07T07:59:37.929Z,1.08
2022-12-07T08:02:04.327Z,4.32
2022-12-07T08:04:30.770Z,1.17
2022-12-07T08:06:57.789Z,0.80
2022-12-07T08:09:24.178Z,1.48
2022-12-07T08:11:50.593Z,2.67
2022-12-07T08:14:16.994Z,1.52
2022-12-07T08:16:43.403Z,1.25
2022-12-07T08:19:09.796Z,1.88
2022-12-07T08:21:36.206Z,1.95
2022-12-07T08:24:02.612Z,3.03
2022-12-07T08:26:29.009Z,2.65
2022-12-07T08:28:55.420Z,2.00
2022-12-07T08:31:21.921Z,4.95
2022-12-07T08:33:48.473Z,0.60
2022-12-07T08:36:14.924Z,1.35
2022-12-07T08:38:47.888Z,2.13
2022-12-07T08:41:22.725Z,5.13
2022-12-07T08:43:49.126Z,1.95
2022-12-07T08:46:36.404Z,2.47
2022-12-07T08:49:11.445Z,4.28
2022-12-07T08:51:37.844Z,2.13
2022-12-07T08:54:05.773Z,0.88
2022-12-07T08:56:32.146Z,2.28
2022-12-07T08:58:58.758Z,2.00
2022-12-07T09:01:25.218Z,2.75
2022-12-07T09:03:51.642Z,1.95
2022-12-07T09:06:18.141Z,1.70
2022-12-07T09:08:48.124Z,2.67
2022-12-07T09:11:14.594Z,3.90
2022-12-07T09:13:42.489Z,2.47
2022-12-07T09:16:08.940Z,2.88
2022-12-07T09:18:35.445Z,4.00
2022-12-07T09:21:01.869Z,2.95
2022-12-07T09:23:28.614Z,2.50
2022-12-07T09:25:55.015Z,1.00
2022-12-07T09:28:21.519Z,1.48
2022-12-07T09:31:21.451Z,2.83
2022-12-07T09:33:36.685Z,2.03
2022-12-07T09:36:05.065Z,3.80
2022-12-07T09:38:31.545Z,3.00
2022-12-07T09:40:57.934Z,1.73
2022-12-07T09:43:25.209Z,3.35
2022-12-07T09:45:52.713Z,6.72
2022-12-07T09:48:23.753Z,1.95
2022-12-07T09:50:50.640Z,1.92
2022-12-07T09:53:35.374Z,4.00
2022-12-07T09:56:01.778Z,2.85
2022-12-07T09:58:29.142Z,2.83
2022-12-07T10:01:16.304Z,2.83
2022-12-07T10:04:22.040Z,2.47
2022-12-07T10:06:48.563Z,4.03
2022-12-07T10:09:16.673Z,0.65
2022-12-07T10:12:05.375Z,3.13
2022-12-07T10:15:05.457Z,1.30
2022-12-07T10:17:30.818Z,1.55
2022-12-07T10:20:12.306Z,4.68
2022-12-07T10:22:38.921Z,3.83
2022-12-07T10:25:21.638Z,1.10
2022-12-07T10:28:17.086Z,0.57
2022-12-07T10:31:16.535Z,3.20
2022-12-07T10:36:43.196Z,4.15
2022-12-07T10:39:14.626Z,3.47
2022-12-07T10:41:59.904Z,3.85
2022-12-07T10:44:35.389Z,0.77
2022-12-07T10:47:26.552Z,2.03
2022-12-07T10:50:02.582Z,1.88
2022-12-07T10:52:41.071Z,4.97
2022-12-07T10:55:28.966Z,1.63
2022-12-07T10:58:40.189Z,3.05
2022-12-07T11:01:14.288Z,2.75
2022-12-07T11:03:49.847Z,2.10
2022-12-07T11:06:31.352Z,2.63
2022-12-07T11:09:05.312Z,0.85
2022-12-07T11:11:37.573Z,2.70
2022-12-07T11:14:19.901Z,2.83
2022-12-07T11:17:02.716Z,3.25
2022-12-07T11:19:53.792Z,1.65
2022-12-07T11:23:07.318Z,3.28
2022-12-07T11:25:37.943Z,1.17
2022-12-07T11:28:20.492Z,3.08
2022-12-07T11:30:58.347Z,4.13
2022-12-07T11:33:57.496Z,5.13
2022-12-07T11:36:41.267Z,2.58
2022-12-07T11:39:19.896Z,4.15
2022-12-07T11:41:46.410Z,1.58
2022-12-07T11:44:27.023Z,2.40
2022-12-07T11:47:17.562Z,6.30
2022-12-07T11:50:01.985Z,1.52
2022-12-07T11:52:49.707Z,2.13
2022-12-07T11:58:31.972Z,2.95
2022-12-07T12:01:23.476Z,6.45
2022-12-07T12:03:54.949Z,4.57
2022-12-07T12:06:22.854Z,1.30
2022-12-07T12:15:25.301Z,3.33
2022-12-07T12:18:16.542Z,1.38
2022-12-07T12:20:55.503Z,1.48
2022-12-07T12:23:35.081Z,5.38
2022-12-07T12:26:03.452Z,2.85
2022-12-07T12:28:48.436Z,2.53
2022-12-07T12:31:23.174Z,5.57
2022-12-07T12:33:51.542Z,3.25
2022-12-07T12:36:33.151Z,5.18
2022-12-07T12:38:59.510Z,7.78
2022-12-07T12:41:37.942Z,4.53
2022-12-07T12:44:31.485Z,5.22
2022-12-07T12:47:00.988Z,1.45
2022-12-07T12:49:27.269Z,5.68
2022-12-07T12:52:00.573Z,1.33
2022-12-07T12:54:28.239Z,11.60
2022-12-07T12:57:12.514Z,6.90
2022-12-07T12:59:48.027Z,1.23
2022-12-07T13:02:25.298Z,2.92
2022-12-07T13:05:07.516Z,6.10
2022-12-07T13:07:46.192Z,2.55
2022-12-07T13:10:28.551Z,3.85
2022-12-07T13:13:13.545Z,3.38
2022-12-07T13:15:59.125Z,4.60
2022-12-07T13:18:28.431Z,4.35
2022-12-07T13:21:09.830Z,2.15
2022-12-07T13:23:45.367Z,4.68
2022-12-07T13:26:18.381Z,6.88
2022-12-07T13:28:49.568Z,2.80
2022-12-07T13:31:31.322Z,3.55
2022-12-07T13:36:25.734Z,4.47
2022-12-07T13:38:59.893Z,7.30
2022-12-07T13:41:27.747Z,2.22
2022-12-07T13:43:55.281Z,3.97
2022-12-07T13:46:32.014Z,3.03
2022-12-07T13:49:00.680Z,4.63
2022-12-07T13:51:28.656Z,2.15
2022-12-07T13:54:02.425Z,4.43
2022-12-07T13:56:37.892Z,1.27
2022-12-07T13:59:05.727Z,2.47
2022-12-07T14:01:32.224Z,2.22
2022-12-07T14:04:24.929Z,2.95
2022-12-07T14:06:51.749Z,2.65
2022-12-07T14:09:25.641Z,0.52
2022-12-07T14:11:53.399Z,4.30
2022-12-07T14:14:26.211Z,4.03
2022-12-07T14:16:59.447Z,2.47
2022-12-07T14:19:51.256Z,2.58
2022-12-07T14:22:31.586Z,2.03
2022-12-07T14:25:02.825Z,3.38
2022-12-07T14:27:33.597Z,2.97
2022-12-07T14:30:00.273Z,3.60
2022-12-07T14:32:28.107Z,2.53
2022-12-07T14:35:09.265Z,2.33
2022-12-07T14:37:35.675Z,2.55
2022-12-07T14:40:02.115Z,3.58
2022-12-07T14:42:29.324Z,2.47
2022-12-07T14:44:56.225Z,1.00
2022-12-07T14:50:12.450Z,0.85
2022-12-07T14:55:29.725Z,5.70
2022-12-07T14:57:56.147Z,3.40
2022-12-07T15:00:23.602Z,1.08
2022-12-07T15:02:50.141Z,1.10
2022-12-07T15:05:17.623Z,1.88
2022-12-07T15:07:44.927Z,2.28
2022-12-07T15:10:19.126Z,0.98
2022-12-07T15:12:48.637Z,4.22
2022-12-07T15:15:15.173Z,5.07
2022-12-07T15:17:41.578Z,3.05
2022-12-07T15:20:13.312Z,5.40
2022-12-07T15:22:39.736Z,2.60
2022-12-07T15:25:06.436Z,1.17
2022-12-07T15:27:32.835Z,1.67
2022-12-07T15:29:59.601Z,4.45
2022-12-07T15:32:26.048Z,3.38
2022-12-07T15:34:52.495Z,4.25
2022-12-07T15:37:18.878Z,2.08
2022-12-07T15:39:45.317Z,3.67
2022-12-07T15:42:14.255Z,3.67
2022-12-07T15:44:40.659Z,2.03
2022-12-07T15:47:07.070Z,5.22
2022-12-07T15:49:33.458Z,1.95
2022-12-07T15:51:59.863Z,4.47
2022-12-07T15:54:27.920Z,2.17
2022-12-07T15:56:54.814Z,3.70
2022-12-07T15:59:21.207Z,3.10
2022-12-07T16:01:51.188Z,4.57
2022-12-07T16:04:17.668Z,2.97
2022-12-07T16:06:44.086Z,4.95
2022-12-07T16:09:10.509Z,4.07
2022-12-07T16:11:36.983Z,4.28
2022-12-07T16:14:03.472Z,2.70
2022-12-07T16:16:30.195Z,3.45
2022-12-07T16:18:56.738Z,4.40
2022-12-07T16:21:25.321Z,2.75
2022-12-07T16:23:54.974Z,3.33
2022-12-07T16:26:22.120Z,4.13
2022-12-07T16:28:52.285Z,2.33
2022-12-07T16:31:22.025Z,1.63
2022-12-07T16:33:48.534Z,4.38
2022-12-07T16:36:15.326Z,3.17
2022-12-07T16:38:41.751Z,4.53
2022-12-07T16:41:08.350Z,1.98
2022-12-07T16:43:34.783Z,3.38
2022-12-07T16:46:01.410Z,2.97
2022-12-07T16:48:27.937Z,2.38
2022-12-07T16:50:54.499Z,3.17
2022-12-07T16:53:21.467Z,3.72
2022-12-07T16:55:47.848Z,2.05
2022-12-07T16:58:16.224Z,3.15
2022-12-07T17:00:42.871Z,5.90
2022-12-07T17:03:16.244Z,2.03
2022-12-07T17:05:47.743Z,5.15
2022-12-07T17:08:14.306Z,5.60
2022-12-07T17:10:42.263Z,5.22
2022-12-07T17:13:08.883Z,5.93
2022-12-07T17:15:35.301Z,8.23
2022-12-07T17:18:01.681Z,7.28
2022-12-07T17:20:29.284Z,5.68
2022-12-07T17:22:55.682Z,6.68
2022-12-07T17:25:22.103Z,3.78
2022-12-07T17:27:48.500Z,4.40
2022-12-07T17:30:15.161Z,6.28
2022-12-07T17:32:41.573Z,4.30
2022-12-07T17:35:08.294Z,6.10
2022-12-07T17:37:34.714Z,4.15
2022-12-07T17:40:01.203Z,3.30
2022-12-07T17:42:27.742Z,4.80
2022-12-07T17:44:54.151Z,4.10
2022-12-07T17:47:20.564Z,3.40
2022-12-07T17:49:47.139Z,5.70
2022-12-07T17:52:13.702Z,2.33
2022-12-07T17:54:40.124Z,4.28
2022-12-07T17:57:06.504Z,3.78
2022-12-07T17:59:32.918Z,4.75
2022-12-07T18:01:59.360Z,5.30
2022-12-07T18:04:25.818Z,4.85
2022-12-07T18:06:52.743Z,2.75
2022-12-07T18:09:19.708Z,3.20
2022-12-07T18:11:46.152Z,5.50
2022-12-07T18:14:12.573Z,5.50
2022-12-07T18:16:39.137Z,2.80
2022-12-07T18:19:07.028Z,5.95
2022-12-07T18:21:33.468Z,3.35
2022-12-07T18:24:00.869Z,4.90
2022-12-07T18:26:27.268Z,8.20
2022-12-07T18:28:53.673Z,4.78
2022-12-07T18:31:20.407Z,5.43
2022-12-07T18:33:47.322Z,7.43
2022-12-07T18:36:14.811Z,3.92
2022-12-07T18:38:41.480Z,5.07
2022-12-07T18:41:08.856Z,3.45
2022-12-07T18:43:35.341Z,5.07
2022-12-07T18:46:01.798Z,6.90
2022-12-07T18:48:29.653Z,3.00
2022-12-07T18:51:03.569Z,6.28
2022-12-07T18:53:33.965Z,4.28
2022-12-07T18:56:14.465Z,4.68
2022-12-07T18:58:43.674Z,5.47
2022-12-07T19:01:11.997Z,4.63
2022-12-07T19:03:38.396Z,4.30
2022-12-07T19:06:08.046Z,7.90
2022-12-07T19:08:34.566Z,4.28
2022-12-07T19:11:01.131Z,5.22
2022-12-07T19:13:27.527Z,3.53
2022-12-07T19:15:56.124Z,7.80
2022-12-07T19:18:22.500Z,5.30
2022-12-07T19:20:48.926Z,7.03
2022-12-07T19:23:15.312Z,2.80
2022-12-07T19:25:43.153Z,4.80
2022-12-07T19:28:09.643Z,7.80
2022-12-07T19:30:36.035Z,7.72
2022-12-07T19:33:02.465Z,4.25
2022-12-07T19:35:28.866Z,6.13
2022-12-07T19:37:55.281Z,2.47
2022-12-07T19:40:21.671Z,3.72
2022-12-07T19:42:49.594Z,7.40
2022-12-07T19:45:16.085Z,5.13
2022-12-07T19:47:42.476Z,3.80
2022-12-07T19:50:09.267Z,6.15
2022-12-07T19:52:36.971Z,4.43
2022-12-07T19:55:04.106Z,4.28
2022-12-07T19:57:30.717Z,11.15
2022-12-07T19:59:58.682Z,5.00
2022-12-07T20:02:25.271Z,5.53
2022-12-07T20:04:51.745Z,5.03
2022-12-07T20:07:18.166Z,5.70
2022-12-07T20:09:45.645Z,5.47
2022-12-07T20:12:12.079Z,5.30
2022-12-07T20:14:39.766Z,2.75
2022-12-07T20:17:06.433Z,5.70
2022-12-07T20:19:38.023Z,4.80
2022-12-07T20:22:04.790Z,4.88
2022-12-07T20:24:32.614Z,3.63
2022-12-07T20:27:02.148Z,3.75
2022-12-07T20:29:28.691Z,3.90
2022-12-07T20:31:55.392Z,2.92
2022-12-07T20:34:24.138Z,3.25
2022-12-07T20:36:50.538Z,2.63
2022-12-07T20:39:17.039Z,3.22
2022-12-07T20:41:45.300Z,3.97
2022-12-07T20:44:14.340Z,3.78
2022-12-07T20:46:41.107Z,3.58
2022-12-07T20:49:07.583Z,5.03
2022-12-07T20:51:34.066Z,4.00
2022-12-07T20:54:00.466Z,3.38
2022-12-07T20:56:28.413Z,4.35
2022-12-07T20:58:55.911Z,4.32
2022-12-07T21:01:22.616Z,5.93
2022-12-07T21:03:49.314Z,3.38
2022-12-07T21:06:16.838Z,4.00
2022-12-07T21:08:47.104Z,6.25
2022-12-07T21:11:13.952Z,4.05
2022-12-07T21:13:40.581Z,4.20
2022-12-07T21:16:17.494Z,3.42
2022-12-07T21:18:44.158Z,4.07
2022-12-07T21:21:10.642Z,6.15
2022-12-07T21:23:37.137Z,4.22
2022-12-07T21:26:14.244Z,8.82
2022-12-07T21:28:40.651Z,4.20
2022-12-07T21:31:14.617Z,6.07
2022-12-07T21:33:41.478Z,4.68
2022-12-07T21:36:08.434Z,6.10
2022-12-07T21:38:34.829Z,5.40
2022-12-07T21:41:09.941Z,6.75
2022-12-07T21:43:36.349Z,7.18
2022-12-07T21:46:03.885Z,4.28
2022-12-07T21:48:30.297Z,6.15
2022-12-07T21:51:03.550Z,6.32
2022-12-07T21:53:32.268Z,4.80
2022-12-07T21:55:58.668Z,7.47
2022-12-07T21:58:26.430Z,6.70
2022-12-07T22:00:52.854Z,7.93
2022-12-07T22:03:19.352Z,5.25
2022-12-07T22:05:45.803Z,5.75
2022-12-07T22:08:12.414Z,6.47
2022-12-07T22:10:38.833Z,7.40
2022-12-07T22:13:05.261Z,7.18
2022-12-07T22:15:31.654Z,7.72
2022-12-07T22:17:58.064Z,7.93
2022-12-07T22:20:24.442Z,6.93
2022-12-07T22:22:50.879Z,7.72
2022-12-07T22:25:17.309Z,6.28
2022-12-07T22:27:43.691Z,9.52
2022-12-07T22:30:11.297Z,8.45
2022-12-07T22:32:48.284Z,10.50
2022-12-07T22:35:15.608Z,9.38
2022-12-07T22:37:42.075Z,11.10
2022-12-07T22:40:08.832Z,8.73
2022-12-07T22:42:35.244Z,9.70
2022-12-07T22:45:03.609Z,9.63
2022-12-07T22:47:30.337Z,8.38
2022-12-07T22:49:56.977Z,9.57
2022-12-07T22:52:23.434Z,9.38
2022-12-07T22:54:49.842Z,9.43
2022-12-07T22:57:16.272Z,10.25
2022-12-07T22:59:42.656Z,10.80
2022-12-07T23:02:09.187Z,10.35
2022-12-07T23:04:35.690Z,12.75
2022-12-07T23:07:02.143Z,12.85
2022-12-07T23:09:28.591Z,12.52
2022-12-07T23:11:54.975Z,10.98
2022-12-07T23:14:29.035Z,10.20
2022-12-07T23:16:55.485Z,11.45
2022-12-07T23:19:21.919Z,12.20
2022-12-07T23:21:48.320Z,12.60
2022-12-07T23:24:15.028Z,13.60
2022-12-07T23:26:42.286Z,14.68
2022-12-07T23:29:11.889Z,17.52
2022-12-07T23:31:41.072Z,15.43
2022-12-07T23:34:07.544Z,14.82
2022-12-07T23:36:34.026Z,17.85
2022-12-07T23:39:00.506Z,16.55
2022-12-07T23:41:28.429Z,15.93
2022-12-07T23:43:55.553Z,14.43
2022-12-07T23:46:25.488Z,18.83
2022-12-07T23:48:52.692Z,14.90
2022-12-07T23:51:19.322Z,17.23
2022-12-07T23:53:47.052Z,15.85
2022-12-07T23:56:14.654Z,16.95
2022-12-07T23:58:41.119Z,16.10
